Klamath Falls, OR (97603)

2:34 PM PDT on August 29, 2015 (GMT -0700)
Lockford | | Change Station
CLOSE
Current Station
Personal Weather Station
Location: Klamath Falls, OR
Elevation: 4124 ft
Nearby Weather Stations
Active Advisory: High Wind Advisory

Elev 4124 ft 42.19 °N, 121.72 °W | Updated 9 seconds ago

Clear
Clear
74.7 °F
Feels Like 77 °F
N
13.7
Wind Variable Wind from SW
Gusts 20.7 mph

Today
High -- | Low -- °F
--% Chance of Precip.
Yesterday
High -- | Low -- °F
Precip. -- in
6:28 AM 7:45 PM
Full, 100% visible
Pressure 29.82 in
Visibility 10.0 miles
Clouds Clear
Heat Index 77 °F
Dew Point 38 °F
Humidity 27%
Rainfall 0.00 in
Snow Depth Not available.
UV 9 out of 12
Pollen 1.80 out of 12
Air Quality Not available.
Flu Activity Not available.
METAR KLMT 292053Z 22015G23KT 10SM CLR 23/02 A2996 RMK AO2 PK WND 23028/2040 SLP097 T02280017 53001
Pressure 29.82 in
Visibility 10.0 miles
Clouds Clear
Heat Index 77 °F
Dew Point 38 °F
Humidity 27%
Rainfall 0.00 in
Snow Depth Not available.
UV 9 out of 12
Pollen 1.80 out of 12
Air Quality Not available.
Flu Activity Not available.
METAR KLMT 292053Z 22015G23KT 10SM CLR 23/02 A2996 RMK AO2 PK WND 23028/2040 SLP097 T02280017 53001

10-Day Weather Forecast

×

Almanac

Astronomy

Aug. 29, 2015 Rise Set
Actual Time
Civil Twilight
Nautical Twilight
Astronomical Twilight
Moon
Length of Visible Light
Length of Day
Tomorrow will be .
, % of the Moon is Illuminated

Today's Extremes

State Highs State Lows

Community

WunderPhotos

Upload Photos

1,850,799 photos uploaded!

WunderBlogs® & News

Nearby

Air Quality

  Air Quality AQ Index Pollutant
Not available.

Snow Depth

Station Depth Elevation

Earthquake Activity

City Distance Mag. Time & Date
Minimum magnitude displayed is 2.5.

Coastal Water Temperatures

Place Temperature

Stations

Nearby Weather Stations

Station Location Temp. Windchill Dew Point Humidity Wind Precip. Elev Updated Type
                   
High Wind Advisory
Statement as of 2:27 PM PDT on August 29, 2015

... Wind Advisory is cancelled...

The National Weather Service in Medford has cancelled the Wind
Advisory.

Although winds will remain breezy through this evening... the
strongest winds have come to an end and no longer present an
immediate hazard.


Bpn